Time;durP1;ratioP1;P1;durP2;ratioP2;P2;SDS_P1;SDS_P2;PMS_P1;PMS_P2;Temp;Humidity;BMP_temperature;BMP_pressure;BME280_temperature;BME280_humidity;BME280_pressure;Samples;Min_cycle;Max_cycle;Signal;HPM_P1;HPM_P2
2024/01/31 00:02:18;;;;;;;1999.90;999.90;;;;;;;;;;5068169;28;20199;-60
2024/01/31 00:04:45;;;;;;;1999.90;999.90;;;;;;;;;;5068026;28;20216;-60
2024/01/31 00:07:12;;;;;;;1999.90;999.90;;;;;;;;;;5068270;28;20582;-60
2024/01/31 00:09:41;;;;;;;1999.90;999.90;;;;;;;;;;5067834;28;20183;-60
2024/01/31 00:12:09;;;;;;;1999.90;999.90;;;;;;;;;;5068372;28;20203;-61
2024/01/31 00:14:36;;;;;;;1999.90;999.90;;;;;;;;;;5067889;28;20219;-60
2024/01/31 00:17:04;;;;;;;1999.90;999.90;;;;;;;;;;5068392;28;20223;-63
2024/01/31 00:19:31;;;;;;;1999.90;999.90;;;;;;;;;;5068355;28;20191;-60
2024/01/31 00:21:58;;;;;;;1999.90;999.90;;;;;;;;;;5067347;28;20670;-60
2024/01/31 00:24:26;;;;;;;1999.90;999.90;;;;;;;;;;5068175;28;20217;-61
2024/01/31 00:26:54;;;;;;;1999.90;999.90;;;;;;;;;;5067083;28;20202;-60
2024/01/31 00:29:22;;;;;;;1999.90;999.90;;;;;;;;;;5068124;28;20565;-60
2024/01/31 00:31:49;;;;;;;1999.90;999.90;;;;;;;;;;5048709;28;20187;-60
2024/01/31 00:34:16;;;;;;;1999.90;999.90;;;;;;;;;;5052614;28;20204;-62
2024/01/31 00:36:43;;;;;;;1999.90;999.90;;;;;;;;;;5051549;28;20196;-60
2024/01/31 00:39:11;;;;;;;1999.90;999.90;;;;;;;;;;5051597;28;20200;-62
2024/01/31 00:41:38;;;;;;;1999.90;999.90;;;;;;;;;;5051960;28;20659;-68
2024/01/31 00:44:07;;;;;;;1999.90;999.90;;;;;;;;;;5051319;28;20199;-62
2024/01/31 00:46:34;;;;;;;1999.90;999.90;;;;;;;;;;5052092;28;20192;-65
2024/01/31 00:49:04;;;;;;;1999.90;999.90;;;;;;;;;;5051214;28;20192;-63
2024/01/31 00:51:32;;;;;;;1999.90;999.90;;;;;;;;;;5052708;28;20188;-64
2024/01/31 00:54:00;;;;;;;1999.90;999.90;;;;;;;;;;5051012;28;20196;-67
2024/01/31 00:56:27;;;;;;;1999.90;999.90;;;;;;;;;;5051903;28;20214;-65
2024/01/31 00:58:54;;;;;;;1999.90;999.90;;;;;;;;;;5051099;28;20206;-63
2024/01/31 01:01:23;;;;;;;1999.90;999.90;;;;;;;;;;5051475;28;20192;-61
2024/01/31 01:03:50;;;;;;;1999.90;999.90;;;;;;;;;;5051682;28;20196;-61
2024/01/31 01:06:18;;;;;;;1999.90;999.90;;;;;;;;;;5051108;28;20217;-63
2024/01/31 01:08:45;;;;;;;1999.90;999.90;;;;;;;;;;5051624;28;20196;-61
2024/01/31 01:11:12;;;;;;;1999.90;999.90;;;;;;;;;;5051227;28;20196;-61
2024/01/31 01:13:40;;;;;;;1999.90;999.90;;;;;;;;;;5051510;28;20285;-61
2024/01/31 01:16:07;;;;;;;1999.90;999.90;;;;;;;;;;5050685;28;20228;-67
2024/01/31 01:18:36;;;;;;;1999.90;999.90;;;;;;;;;;5051134;28;20202;-60
2024/01/31 01:21:04;;;;;;;1999.90;999.90;;;;;;;;;;5050800;28;20454;-62
2024/01/31 01:23:31;;;;;;;1999.90;999.90;;;;;;;;;;5051232;28;20195;-60
2024/01/31 01:25:59;;;;;;;1999.90;999.90;;;;;;;;;;5050898;28;20224;-60
2024/01/31 01:28:26;;;;;;;1999.90;999.90;;;;;;;;;;5051115;28;20317;-60
2024/01/31 01:30:53;;;;;;;1999.90;999.90;;;;;;;;;;5063579;28;20187;-60
2024/01/31 01:33:21;;;;;;;1999.90;999.90;;;;;;;;;;5053103;28;20207;-59
2024/01/31 01:35:49;;;;;;;1999.90;999.90;;;;;;;;;;5070724;28;20203;-60
2024/01/31 01:38:17;;;;;;;1999.90;999.90;;;;;;;;;;5070910;28;20196;-61
2024/01/31 01:40:44;;;;;;;1999.90;999.90;;;;;;;;;;5070787;28;20206;-61
2024/01/31 01:43:16;;;;;;;1999.90;999.90;;;;;;;;;;5070180;28;20563;-60
2024/01/31 01:45:44;;;;;;;1999.90;999.90;;;;;;;;;;5070936;28;20211;-65
2024/01/31 01:48:11;;;;;;;1999.90;999.90;;;;;;;;;;5070168;28;20199;-60
2024/01/31 01:50:39;;;;;;;1999.90;999.90;;;;;;;;;;5070652;28;20195;-60
2024/01/31 01:53:08;;;;;;;1999.90;999.90;;;;;;;;;;5069820;28;20191;-62
2024/01/31 01:55:36;;;;;;;1999.90;999.90;;;;;;;;;;5070725;28;20195;-60
2024/01/31 01:58:03;;;;;;;1999.90;999.90;;;;;;;;;;5069942;28;20200;-59
2024/01/31 02:00:32;;;;;;;1999.90;999.90;;;;;;;;;;5070921;28;20201;-60
2024/01/31 02:03:00;;;;;;;1999.90;999.90;;;;;;;;;;5069558;28;20206;-60
2024/01/31 02:05:27;;;;;;;1999.90;999.90;;;;;;;;;;5070999;28;20222;-61
2024/01/31 02:07:54;;;;;;;1999.90;999.90;;;;;;;;;;5069615;28;20198;-62
2024/01/31 02:10:23;;;;;;;1999.90;999.90;;;;;;;;;;5050216;28;20200;-60
2024/01/31 02:12:50;;;;;;;1999.90;999.90;;;;;;;;;;5050355;28;20629;-60
2024/01/31 02:15:18;;;;;;;1999.90;999.90;;;;;;;;;;5049387;28;20601;-60
2024/01/31 02:17:45;;;;;;;1999.90;999.90;;;;;;;;;;5050422;28;20566;-60
2024/01/31 02:20:15;;;;;;;1999.90;999.90;;;;;;;;;;5049663;28;20192;-60
2024/01/31 02:22:45;;;;;;;1999.90;999.90;;;;;;;;;;5050242;28;20180;-60
2024/01/31 02:25:13;;;;;;;1999.90;999.90;;;;;;;;;;5049362;28;20212;-60
2024/01/31 02:27:41;;;;;;;1999.90;999.90;;;;;;;;;;5049736;28;20203;-60
2024/01/31 02:30:08;;;;;;;1999.90;999.90;;;;;;;;;;5056489;28;20179;-60
2024/01/31 02:32:36;;;;;;;1999.90;999.90;;;;;;;;;;5069841;28;20209;-60
2024/01/31 02:35:03;;;;;;;1999.90;999.90;;;;;;;;;;5069720;28;20195;-61
2024/01/31 02:37:30;;;;;;;1999.90;999.90;;;;;;;;;;5069620;28;20203;-60
2024/01/31 02:39:59;;;;;;;1999.90;999.90;;;;;;;;;;5051741;28;20199;-60
2024/01/31 02:42:26;;;;;;;1999.90;999.90;;;;;;;;;;5051328;28;20558;-60
2024/01/31 02:44:53;;;;;;;1999.90;999.90;;;;;;;;;;5069387;28;20196;-61
2024/01/31 02:47:21;;;;;;;1999.90;999.90;;;;;;;;;;5069035;28;20197;-63
2024/01/31 02:49:48;;;;;;;1999.90;999.90;;;;;;;;;;5051650;28;20654;-60
2024/01/31 02:52:15;;;;;;;1999.90;999.90;;;;;;;;;;5069115;28;20549;-60
2024/01/31 02:54:42;;;;;;;1999.90;999.90;;;;;;;;;;5068571;28;20198;-60
2024/01/31 02:57:11;;;;;;;1999.90;999.90;;;;;;;;;;5069334;28;20199;-60
2024/01/31 02:59:38;;;;;;;1999.90;999.90;;;;;;;;;;5069076;28;20195;-60
2024/01/31 03:02:06;;;;;;;1999.90;999.90;;;;;;;;;;5034501;28;20208;-60
2024/01/31 03:04:33;;;;;;;1999.90;999.90;;;;;;;;;;5029441;28;20197;-60
2024/01/31 03:07:03;;;;;;;1999.90;999.90;;;;;;;;;;5029076;28;20204;-61
2024/01/31 03:09:30;;;;;;;1999.90;999.90;;;;;;;;;;5029213;28;20201;-60
2024/01/31 03:11:58;;;;;;;1999.90;999.90;;;;;;;;;;5029007;28;20199;-60
2024/01/31 03:14:26;;;;;;;1999.90;999.90;;;;;;;;;;5010974;28;20196;-61
2024/01/31 03:16:54;;;;;;;1999.90;999.90;;;;;;;;;;5011424;28;20197;-65
2024/01/31 03:19:21;;;;;;;1999.90;999.90;;;;;;;;;;5028498;28;20579;-64
2024/01/31 03:21:48;;;;;;;1999.90;999.90;;;;;;;;;;5029141;28;20195;-68
2024/01/31 03:24:16;;;;;;;1999.90;999.90;;;;;;;;;;5010937;28;20224;-62
2024/01/31 03:26:43;;;;;;;1999.90;999.90;;;;;;;;;;5029153;28;20224;-60
2024/01/31 03:29:11;;;;;;;1999.90;999.90;;;;;;;;;;5028005;28;20591;-60
2024/01/31 03:31:40;;;;;;;1999.90;999.90;;;;;;;;;;5067851;28;20223;-60
2024/01/31 03:34:07;;;;;;;1999.90;999.90;;;;;;;;;;5067882;28;20198;-60
2024/01/31 03:36:35;;;;;;;1999.90;999.90;;;;;;;;;;5050660;28;20203;-60
2024/01/31 03:39:03;;;;;;;1999.90;999.90;;;;;;;;;;5068446;28;20199;-61
2024/01/31 03:41:30;;;;;;;1999.90;999.90;;;;;;;;;;5068171;28;20657;-61
2024/01/31 03:43:57;;;;;;;1999.90;999.90;;;;;;;;;;5068761;28;20234;-60
2024/01/31 03:46:25;;;;;;;1999.90;999.90;;;;;;;;;;5067927;28;20222;-68
2024/01/31 03:48:54;;;;;;;1999.90;999.90;;;;;;;;;;5048411;28;20204;-60
2024/01/31 03:51:21;;;;;;;1999.90;999.90;;;;;;;;;;5047678;28;20192;-61
2024/01/31 03:53:48;;;;;;;1999.90;999.90;;;;;;;;;;5048398;28;20192;-61
2024/01/31 03:56:16;;;;;;;1999.90;999.90;;;;;;;;;;5047859;28;20279;-63
2024/01/31 03:58:44;;;;;;;1999.90;999.90;;;;;;;;;;5048197;28;20199;-66
2024/01/31 04:01:15;;;;;;;1999.90;999.90;;;;;;;;;;5047993;28;20557;-61
2024/01/31 04:03:43;;;;;;;1999.90;999.90;;;;;;;;;;5048342;28;20188;-63
2024/01/31 04:06:12;;;;;;;1999.90;999.90;;;;;;;;;;5029953;28;20314;-61
2024/01/31 04:08:39;;;;;;;1999.90;999.90;;;;;;;;;;5048419;28;20226;-61
2024/01/31 04:11:07;;;;;;;1999.90;999.90;;;;;;;;;;5030052;28;20200;-61
2024/01/31 04:13:34;;;;;;;1999.90;999.90;;;;;;;;;;5047932;28;20218;-65
2024/01/31 04:16:01;;;;;;;1999.90;999.90;;;;;;;;;;5047850;28;20231;-63
2024/01/31 04:18:29;;;;;;;1999.90;999.90;;;;;;;;;;5047898;28;20678;-61
2024/01/31 04:20:56;;;;;;;1999.90;999.90;;;;;;;;;;5048003;28;20199;-61
2024/01/31 04:23:25;;;;;;;1999.90;999.90;;;;;;;;;;5048065;28;20552;-60
2024/01/31 04:25:52;;;;;;;1999.90;999.90;;;;;;;;;;5047945;28;20218;-62
2024/01/31 04:28:21;;;;;;;1999.90;999.90;;;;;;;;;;5047734;28;20196;-60
2024/01/31 04:30:48;;;;;;;1999.90;999.90;;;;;;;;;;5060201;28;20523;-60
2024/01/31 04:33:16;;;;;;;1999.90;999.90;;;;;;;;;;5067495;28;20194;-65
2024/01/31 04:35:43;;;;;;;1999.90;999.90;;;;;;;;;;5067861;28;20227;-63
2024/01/31 04:38:11;;;;;;;1999.90;999.90;;;;;;;;;;5067981;28;21047;-63
2024/01/31 04:40:39;;;;;;;1999.90;999.90;;;;;;;;;;5067911;28;20199;-61
2024/01/31 04:43:07;;;;;;;1999.90;999.90;;;;;;;;;;5067627;28;20202;-60
2024/01/31 04:45:34;;;;;;;1999.90;999.90;;;;;;;;;;5067996;28;20198;-60
2024/01/31 04:48:01;;;;;;;1999.90;999.90;;;;;;;;;;5067662;28;20707;-61
2024/01/31 04:50:28;;;;;;;1999.90;999.90;;;;;;;;;;5067325;28;20194;-64
2024/01/31 04:52:56;;;;;;;1999.90;999.90;;;;;;;;;;5067856;28;20187;-60
2024/01/31 04:55:23;;;;;;;1999.90;999.90;;;;;;;;;;5067216;28;20202;-61
2024/01/31 04:57:52;;;;;;;1999.90;999.90;;;;;;;;;;5068185;28;20196;-63
2024/01/31 05:00:23;;;;;;;1999.90;999.90;;;;;;;;;;5067086;28;20201;-60
2024/01/31 05:02:51;;;;;;;1999.90;999.90;;;;;;;;;;5067920;28;20504;-62
2024/01/31 05:05:19;;;;;;;1999.90;999.90;;;;;;;;;;5067547;28;20479;-66
2024/01/31 05:07:46;;;;;;;1999.90;999.90;;;;;;;;;;5067514;28;20236;-61
2024/01/31 05:10:13;;;;;;;1999.90;999.90;;;;;;;;;;5067613;28;20531;-60
2024/01/31 05:12:41;;;;;;;1999.90;999.90;;;;;;;;;;5066974;28;20208;-61
2024/01/31 05:15:10;;;;;;;1999.90;999.90;;;;;;;;;;5067401;28;20227;-60
2024/01/31 05:17:37;;;;;;;1999.90;999.90;;;;;;;;;;5067832;28;20197;-60
2024/01/31 05:20:05;;;;;;;1999.90;999.90;;;;;;;;;;5071170;28;20191;-66
2024/01/31 05:22:32;;;;;;;1999.90;999.90;;;;;;;;;;5070886;28;20232;-60
2024/01/31 05:24:59;;;;;;;1999.90;999.90;;;;;;;;;;5071079;28;20198;-60
2024/01/31 05:27:27;;;;;;;1999.90;999.90;;;;;;;;;;5070474;28;20689;-63
2024/01/31 05:29:54;;;;;;;1999.90;999.90;;;;;;;;;;5065815;28;20193;-66
2024/01/31 05:32:23;;;;;;;1999.90;999.90;;;;;;;;;;5051220;28;20203;-60
2024/01/31 05:34:50;;;;;;;1999.90;999.90;;;;;;;;;;5051145;28;20203;-60
2024/01/31 05:37:17;;;;;;;1999.90;999.90;;;;;;;;;;5051231;28;20202;-60
2024/01/31 05:39:44;;;;;;;1999.90;999.90;;;;;;;;;;5050196;28;20213;-69
2024/01/31 05:42:12;;;;;;;1999.90;999.90;;;;;;;;;;5050824;28;20202;-61
2024/01/31 05:44:39;;;;;;;1999.90;999.90;;;;;;;;;;5050315;28;20195;-63
2024/01/31 05:47:06;;;;;;;1999.90;999.90;;;;;;;;;;5050773;28;20226;-60
2024/01/31 05:49:35;;;;;;;1999.90;999.90;;;;;;;;;;5050819;28;20195;-64
2024/01/31 05:52:02;;;;;;;1999.90;999.90;;;;;;;;;;5050387;28;20551;-60
2024/01/31 05:54:29;;;;;;;1999.90;999.90;;;;;;;;;;5050229;28;20552;-65
2024/01/31 05:56:57;;;;;;;1999.90;999.90;;;;;;;;;;5050138;28;20200;-65
2024/01/31 05:59:25;;;;;;;1999.90;999.90;;;;;;;;;;5050547;28;20192;-60
2024/01/31 06:01:52;;;;;;;1999.90;999.90;;;;;;;;;;5050478;28;20217;-59
2024/01/31 06:04:19;;;;;;;1999.90;999.90;;;;;;;;;;5050399;28;20222;-65
2024/01/31 06:06:48;;;;;;;1999.90;999.90;;;;;;;;;;5049642;28;20234;-67
2024/01/31 06:09:15;;;;;;;1999.90;999.90;;;;;;;;;;5050206;28;20191;-65
2024/01/31 06:11:43;;;;;;;1999.90;999.90;;;;;;;;;;5050413;28;20196;-64
2024/01/31 06:14:10;;;;;;;1999.90;999.90;;;;;;;;;;5049973;28;20206;-70
2024/01/31 06:16:37;;;;;;;1999.90;999.90;;;;;;;;;;5049795;28;20239;-60
2024/01/31 06:19:05;;;;;;;1999.90;999.90;;;;;;;;;;5049993;28;20192;-67
2024/01/31 06:21:32;;;;;;;1999.90;999.90;;;;;;;;;;5049532;28;20677;-59
2024/01/31 06:24:01;;;;;;;1999.90;999.90;;;;;;;;;;5049935;28;20187;-68
2024/01/31 06:26:30;;;;;;;1999.90;999.90;;;;;;;;;;5032138;28;20598;-63
2024/01/31 06:28:58;;;;;;;1999.90;999.90;;;;;;;;;;5049313;28;20203;-59
2024/01/31 06:31:27;;;;;;;1999.90;999.90;;;;;;;;;;5068084;28;20222;-59
2024/01/31 06:33:55;;;;;;;1999.90;999.90;;;;;;;;;;5069193;28;20706;-60
2024/01/31 06:36:22;;;;;;;1999.90;999.90;;;;;;;;;;5031378;28;20198;-73
2024/01/31 06:38:50;;;;;;;1999.90;999.90;;;;;;;;;;5050025;28;20192;-70
2024/01/31 06:41:19;;;;;;;1999.90;999.90;;;;;;;;;;5050170;28;20693;-68
2024/01/31 06:43:46;;;;;;;1999.90;999.90;;;;;;;;;;5049145;28;20626;-68
2024/01/31 06:46:15;;;;;;;1999.90;999.90;;;;;;;;;;5050604;28;20279;-73
2024/01/31 06:48:42;;;;;;;1999.90;999.90;;;;;;;;;;5049434;28;20214;-60
2024/01/31 06:51:09;;;;;;;1999.90;999.90;;;;;;;;;;5049997;28;20203;-67
2024/01/31 06:53:37;;;;;;;1999.90;999.90;;;;;;;;;;5048824;28;20199;-64
2024/01/31 06:56:04;;;;;;;1999.90;999.90;;;;;;;;;;5049361;28;20198;-67
2024/01/31 06:58:33;;;;;;;1999.90;999.90;;;;;;;;;;5049675;28;20653;-60
2024/01/31 07:01:02;;;;;;;1999.90;999.90;;;;;;;;;;5048649;28;20213;-59
2024/01/31 07:03:29;;;;;;;1999.90;999.90;;;;;;;;;;5049393;28;20195;-60
2024/01/31 07:05:56;;;;;;;1999.90;999.90;;;;;;;;;;5048160;28;20206;-59
2024/01/31 07:08:24;;;;;;;1999.90;999.90;;;;;;;;;;5048703;28;20741;-60
2024/01/31 07:10:51;;;;;;;1999.90;999.90;;;;;;;;;;5030333;28;20710;-59
2024/01/31 07:13:18;;;;;;;1999.90;999.90;;;;;;;;;;5047132;28;20698;-59
2024/01/31 07:15:47;;;;;;;1999.90;999.90;;;;;;;;;;5047762;28;20225;-60
2024/01/31 07:18:15;;;;;;;1999.90;999.90;;;;;;;;;;5042118;28;20199;-59
2024/01/31 07:20:42;;;;;;;1999.90;999.90;;;;;;;;;;5030415;28;20199;-59
2024/01/31 07:23:09;;;;;;;1999.90;999.90;;;;;;;;;;5048968;28;20552;-60
2024/01/31 07:25:39;;;;;;;1999.90;999.90;;;;;;;;;;5049068;28;20195;-60
2024/01/31 07:28:07;;;;;;;1999.90;999.90;;;;;;;;;;5048569;28;20210;-60
2024/01/31 07:30:34;;;;;;;1999.90;999.90;;;;;;;;;;5041102;28;20206;-60
2024/01/31 07:33:03;;;;;;;1999.90;999.90;;;;;;;;;;5067800;28;20202;-59
2024/01/31 07:35:30;;;;;;;1999.90;999.90;;;;;;;;;;5068336;28;20195;-60
2024/01/31 07:37:58;;;;;;;1999.90;999.90;;;;;;;;;;5067789;28;20198;-59
2024/01/31 07:40:25;;;;;;;1999.90;999.90;;;;;;;;;;5068132;28;20233;-60
2024/01/31 07:42:52;;;;;;;1999.90;999.90;;;;;;;;;;5050213;28;20529;-59
2024/01/31 07:45:19;;;;;;;1999.90;999.90;;;;;;;;;;5068623;28;20197;-59
2024/01/31 07:47:47;;;;;;;1999.90;999.90;;;;;;;;;;5065060;28;20217;-67
2024/01/31 07:50:15;;;;;;;1999.90;999.90;;;;;;;;;;5043371;28;20201;-61
2024/01/31 07:52:45;;;;;;;1999.90;999.90;;;;;;;;;;5045498;28;20707;-68
2024/01/31 07:55:13;;;;;;;1999.90;999.90;;;;;;;;;;5048235;28;20589;-60
2024/01/31 07:57:40;;;;;;;1999.90;999.90;;;;;;;;;;5047651;28;20209;-66
2024/01/31 08:00:09;;;;;;;1999.90;999.90;;;;;;;;;;5030253;28;20206;-68
2024/01/31 08:02:36;;;;;;;1999.90;999.90;;;;;;;;;;5048270;28;20198;-68
2024/01/31 08:05:03;;;;;;;1999.90;999.90;;;;;;;;;;5047653;28;20199;-66
2024/01/31 08:07:32;;;;;;;1999.90;999.90;;;;;;;;;;5048074;28;20222;-68
2024/01/31 08:09:59;;;;;;;1999.90;999.90;;;;;;;;;;5029498;28;20564;-64
2024/01/31 08:12:26;;;;;;;1999.90;999.90;;;;;;;;;;5048323;28;20206;-65
2024/01/31 08:14:54;;;;;;;1999.90;999.90;;;;;;;;;;5047483;28;20685;-72
2024/01/31 08:17:21;;;;;;;1999.90;999.90;;;;;;;;;;5030630;28;20620;-68
2024/01/31 08:19:49;;;;;;;1999.90;999.90;;;;;;;;;;5040829;28;20206;-69
2024/01/31 08:22:16;;;;;;;1999.90;999.90;;;;;;;;;;5028373;28;20558;-63
2024/01/31 08:24:45;;;;;;;1999.90;999.90;;;;;;;;;;5027662;28;20196;-71
2024/01/31 08:27:12;;;;;;;1999.90;999.90;;;;;;;;;;5027116;28;20539;-67
2024/01/31 08:29:39;;;;;;;1999.90;999.90;;;;;;;;;;5034461;28;20669;-67
2024/01/31 08:32:07;;;;;;;1999.90;999.90;;;;;;;;;;5067784;28;20198;-68
2024/01/31 08:34:34;;;;;;;1999.90;999.90;;;;;;;;;;5068680;28;20201;-72
2024/01/31 08:37:02;;;;;;;1999.90;999.90;;;;;;;;;;5067435;28;20243;-68
2024/01/31 08:39:30;;;;;;;1999.90;999.90;;;;;;;;;;5068071;28;20937;-64
2024/01/31 08:41:59;;;;;;;1999.90;999.90;;;;;;;;;;5067460;28;20471;-71
2024/01/31 08:44:26;;;;;;;1999.90;999.90;;;;;;;;;;5068179;28;20297;-64
2024/01/31 08:46:53;;;;;;;1999.90;999.90;;;;;;;;;;5047794;28;20555;-63
2024/01/31 08:49:21;;;;;;;1999.90;999.90;;;;;;;;;;5019372;28;20381;-64
2024/01/31 08:51:48;;;;;;;1999.90;999.90;;;;;;;;;;5047375;28;20200;-65
2024/01/31 08:54:16;;;;;;;1999.90;999.90;;;;;;;;;;5032273;28;20207;-67
2024/01/31 08:56:43;;;;;;;1999.90;999.90;;;;;;;;;;5051194;28;20230;-68
2024/01/31 08:59:12;;;;;;;1999.90;999.90;;;;;;;;;;5051256;28;20546;-64
2024/01/31 09:01:44;;;;;;;1999.90;999.90;;;;;;;;;;5051572;28;20196;-69
2024/01/31 09:04:11;;;;;;;1999.90;999.90;;;;;;;;;;5021964;28;20698;-69
2024/01/31 09:06:40;;;;;;;1999.90;999.90;;;;;;;;;;5011471;28;20210;-65
2024/01/31 09:09:08;;;;;;;1999.90;999.90;;;;;;;;;;5031131;28;20304;-69
2024/01/31 09:11:35;;;;;;;1999.90;999.90;;;;;;;;;;5058457;28;20528;-70
2024/01/31 09:14:03;;;;;;;1999.90;999.90;;;;;;;;;;5070798;28;20184;-71
2024/01/31 09:16:33;;;;;;;1999.90;999.90;;;;;;;;;;5023292;28;20220;-65
2024/01/31 09:19:01;;;;;;;1999.90;999.90;;;;;;;;;;5027912;28;20647;-61
2024/01/31 09:21:28;;;;;;;1999.90;999.90;;;;;;;;;;5049244;28;20666;-70
2024/01/31 09:23:55;;;;;;;1999.90;999.90;;;;;;;;;;5030941;28;20210;-72
2024/01/31 09:26:23;;;;;;;1999.90;999.90;;;;;;;;;;5032420;28;20204;-68
2024/01/31 09:28:50;;;;;;;1999.90;999.90;;;;;;;;;;5050687;28;20716;-68
2024/01/31 09:31:21;;;;;;;1999.90;999.90;;;;;;;;;;5066963;28;20214;-65
2024/01/31 09:33:50;;;;;;;1999.90;999.90;;;;;;;;;;5071018;28;20199;-63
2024/01/31 09:36:18;;;;;;;1999.90;999.90;;;;;;;;;;5068422;28;20191;-72
2024/01/31 09:38:47;;;;;;;1999.90;999.90;;;;;;;;;;5071232;28;20194;-61
2024/01/31 09:41:16;;;;;;;1999.90;999.90;;;;;;;;;;5060095;28;20294;-64
2024/01/31 09:43:43;;;;;;;1999.90;999.90;;;;;;;;;;5048318;28;20556;-62
2024/01/31 09:46:11;;;;;;;1999.90;999.90;;;;;;;;;;5050185;28;20812;-64
2024/01/31 09:48:39;;;;;;;1999.90;999.90;;;;;;;;;;5050457;28;20230;-65
2024/01/31 09:51:08;;;;;;;1999.90;999.90;;;;;;;;;;5034396;28;20205;-72
2024/01/31 09:53:36;;;;;;;1999.90;999.90;;;;;;;;;;5031269;28;20197;-65
2024/01/31 09:56:04;;;;;;;1999.90;999.90;;;;;;;;;;5031192;28;20204;-66
2024/01/31 09:58:31;;;;;;;1999.90;999.90;;;;;;;;;;5032363;28;20192;-62
2024/01/31 10:00:59;;;;;;;1999.90;999.90;;;;;;;;;;5035444;28;20263;-64
2024/01/31 10:03:27;;;;;;;1999.90;999.90;;;;;;;;;;5034916;28;20587;-60
2024/01/31 10:05:54;;;;;;;1999.90;999.90;;;;;;;;;;5036394;28;20200;-64
2024/01/31 10:08:23;;;;;;;1999.90;999.90;;;;;;;;;;5035918;28;20228;-62
2024/01/31 10:10:51;;;;;;;1999.90;999.90;;;;;;;;;;5032245;28;20665;-67
2024/01/31 10:13:18;;;;;;;1999.90;999.90;;;;;;;;;;5029878;28;20218;-70
2024/01/31 10:15:46;;;;;;;1999.90;999.90;;;;;;;;;;5030394;28;20220;-65
2024/01/31 10:18:13;;;;;;;1999.90;999.90;;;;;;;;;;5032801;28;20198;-70
2024/01/31 10:20:40;;;;;;;1999.90;999.90;;;;;;;;;;5039352;28;20200;-68
2024/01/31 10:23:08;;;;;;;1999.90;999.90;;;;;;;;;;5030922;28;20197;-63
2024/01/31 10:25:37;;;;;;;1999.90;999.90;;;;;;;;;;5033312;28;20193;-62
2024/01/31 10:28:05;;;;;;;1999.90;999.90;;;;;;;;;;5031128;28;20216;-61
2024/01/31 10:30:32;;;;;;;1999.90;999.90;;;;;;;;;;5051907;28;20249;-66
2024/01/31 10:33:01;;;;;;;1999.90;999.90;;;;;;;;;;5070783;28;20252;-65
2024/01/31 10:35:29;;;;;;;1999.90;999.90;;;;;;;;;;5061017;28;20203;-67
2024/01/31 10:37:56;;;;;;;1999.90;999.90;;;;;;;;;;5050422;28;20188;-65
2024/01/31 10:40:24;;;;;;;1999.90;999.90;;;;;;;;;;5049687;28;20550;-68
2024/01/31 10:42:54;;;;;;;1999.90;999.90;;;;;;;;;;5049785;28;20442;-65
2024/01/31 10:45:22;;;;;;;1999.90;999.90;;;;;;;;;;5049070;28;20204;-70
2024/01/31 10:47:49;;;;;;;1999.90;999.90;;;;;;;;;;5049992;28;20219;-64
2024/01/31 10:50:17;;;;;;;1999.90;999.90;;;;;;;;;;5049144;28;20196;-68
2024/01/31 10:52:46;;;;;;;1999.90;999.90;;;;;;;;;;5031581;28;20196;-70
2024/01/31 10:55:13;;;;;;;1999.90;999.90;;;;;;;;;;5043164;28;20207;-68
2024/01/31 10:57:42;;;;;;;1999.90;999.90;;;;;;;;;;5049494;28;20196;-66
2024/01/31 11:00:12;;;;;;;1999.90;999.90;;;;;;;;;;5049277;28;20191;-66
2024/01/31 11:02:40;;;;;;;1999.90;999.90;;;;;;;;;;5050698;28;20194;-65
2024/01/31 11:05:07;;;;;;;1999.90;999.90;;;;;;;;;;5056754;28;20215;-63
2024/01/31 11:07:44;;;;;;;1999.90;999.90;;;;;;;;;;5048660;28;20192;-62
2024/01/31 11:10:12;;;;;;;1999.90;999.90;;;;;;;;;;5049216;28;20816;-65
2024/01/31 11:12:40;;;;;;;1999.90;999.90;;;;;;;;;;5048891;28;20191;-63
2024/01/31 11:15:08;;;;;;;1999.90;999.90;;;;;;;;;;5048378;28;20667;-63
2024/01/31 11:17:43;;;;;;;1999.90;999.90;;;;;;;;;;5045843;28;20228;-64
2024/01/31 11:20:13;;;;;;;1999.90;999.90;;;;;;;;;;5044822;28;20187;-66
2024/01/31 11:22:42;;;;;;;1999.90;999.90;;;;;;;;;;5048315;28;20184;-66
2024/01/31 11:25:09;;;;;;;1999.90;999.90;;;;;;;;;;5049077;28;20250;-62
2024/01/31 11:27:37;;;;;;;1999.90;999.90;;;;;;;;;;5048699;28;20201;-63
2024/01/31 11:30:05;;;;;;;1999.90;999.90;;;;;;;;;;5055056;28;20275;-66
2024/01/31 11:32:33;;;;;;;1999.90;999.90;;;;;;;;;;5068255;28;20199;-63
2024/01/31 11:35:04;;;;;;;1999.90;999.90;;;;;;;;;;5068335;28;20191;-65
2024/01/31 11:37:32;;;;;;;1999.90;999.90;;;;;;;;;;5068374;28;20207;-63
2024/01/31 11:39:59;;;;;;;1999.90;999.90;;;;;;;;;;5068513;28;20191;-61
2024/01/31 11:42:26;;;;;;;1999.90;999.90;;;;;;;;;;5069550;28;20195;-64
2024/01/31 11:44:54;;;;;;;1999.90;999.90;;;;;;;;;;5068762;28;20195;-62
2024/01/31 11:47:21;;;;;;;1999.90;999.90;;;;;;;;;;5058867;28;20528;-67
2024/01/31 11:49:49;;;;;;;1999.90;999.90;;;;;;;;;;5030823;28;20729;-65
2024/01/31 11:52:17;;;;;;;1999.90;999.90;;;;;;;;;;5028297;28;20192;-64
2024/01/31 11:54:44;;;;;;;1999.90;999.90;;;;;;;;;;5027923;28;20197;-62
2024/01/31 11:57:12;;;;;;;1999.90;999.90;;;;;;;;;;5028402;28;20199;-61
2024/01/31 11:59:39;;;;;;;1999.90;999.90;;;;;;;;;;5027604;28;20196;-60
2024/01/31 12:02:07;;;;;;;1999.90;999.90;;;;;;;;;;5028369;28;20741;-66
2024/01/31 12:04:34;;;;;;;1999.90;999.90;;;;;;;;;;5027901;28;20193;-60
2024/01/31 12:07:05;;;;;;;1999.90;999.90;;;;;;;;;;5028585;28;20204;-63
2024/01/31 12:09:35;;;;;;;1999.90;999.90;;;;;;;;;;5028012;28;20644;-66
2024/01/31 12:12:02;;;;;;;1999.90;999.90;;;;;;;;;;5010602;28;20196;-60
2024/01/31 12:14:29;;;;;;;1999.90;999.90;;;;;;;;;;5027741;28;20200;-67
2024/01/31 12:16:56;;;;;;;1999.90;999.90;;;;;;;;;;5027721;28;20608;-63
2024/01/31 12:19:27;;;;;;;1999.90;999.90;;;;;;;;;;5039847;28;20202;-60
2024/01/31 12:21:55;;;;;;;1999.90;999.90;;;;;;;;;;5027949;28;20218;-61
2024/01/31 12:24:23;;;;;;;1999.90;999.90;;;;;;;;;;5028215;28;20200;-61
2024/01/31 12:26:51;;;;;;;1999.90;999.90;;;;;;;;;;5029008;28;20284;-61
2024/01/31 12:29:21;;;;;;;1999.90;999.90;;;;;;;;;;5032749;28;20226;-62
2024/01/31 12:31:48;;;;;;;1999.90;999.90;;;;;;;;;;5071707;28;20334;-62
2024/01/31 12:34:15;;;;;;;1999.90;999.90;;;;;;;;;;5072199;28;20195;-63
2024/01/31 12:36:42;;;;;;;1999.90;999.90;;;;;;;;;;5071840;28;20191;-60
2024/01/31 12:39:16;;;;;;;1999.90;999.90;;;;;;;;;;5071963;28;20195;-65
2024/01/31 12:41:43;;;;;;;1999.90;999.90;;;;;;;;;;5071623;28;20182;-60
2024/01/31 12:44:12;;;;;;;1999.90;999.90;;;;;;;;;;5053857;28;20849;-62
2024/01/31 12:46:40;;;;;;;1999.90;999.90;;;;;;;;;;5071824;28;20191;-60
2024/01/31 12:49:07;;;;;;;1999.90;999.90;;;;;;;;;;5031931;28;20224;-60
2024/01/31 12:51:35;;;;;;;1999.90;999.90;;;;;;;;;;5015520;28;20204;-61
2024/01/31 12:54:02;;;;;;;1999.90;999.90;;;;;;;;;;5032022;28;20214;-60
2024/01/31 12:56:30;;;;;;;1999.90;999.90;;;;;;;;;;5032171;28;20670;-59
2024/01/31 12:58:57;;;;;;;1999.90;999.90;;;;;;;;;;5031885;28;20202;-60
2024/01/31 13:01:26;;;;;;;1999.90;999.90;;;;;;;;;;5032662;28;20204;-60
2024/01/31 13:03:53;;;;;;;1999.90;999.90;;;;;;;;;;5031979;28;20193;-61
2024/01/31 13:06:21;;;;;;;1999.90;999.90;;;;;;;;;;5032978;28;20189;-74
2024/01/31 13:08:48;;;;;;;1999.90;999.90;;;;;;;;;;5031626;28;20703;-60
2024/01/31 13:11:15;;;;;;;1999.90;999.90;;;;;;;;;;5032946;28;20196;-59
2024/01/31 13:13:47;;;;;;;1999.90;999.90;;;;;;;;;;5041497;28;20212;-68
2024/01/31 13:16:14;;;;;;;1999.90;999.90;;;;;;;;;;5050360;28;20294;-68
2024/01/31 13:18:43;;;;;;;1999.90;999.90;;;;;;;;;;5055761;28;20187;-68
2024/01/31 13:21:10;;;;;;;1999.90;999.90;;;;;;;;;;5069548;28;20287;-66
2024/01/31 13:23:39;;;;;;;1999.90;999.90;;;;;;;;;;5072068;28;20195;-62
2024/01/31 13:26:07;;;;;;;1999.90;999.90;;;;;;;;;;5071424;28;20214;-67
2024/01/31 13:28:34;;;;;;;1999.90;999.90;;;;;;;;;;5050719;28;20541;-67
2024/01/31 13:31:02;;;;;;;1999.90;999.90;;;;;;;;;;5080552;28;20194;-64
2024/01/31 13:33:29;;;;;;;1999.90;999.90;;;;;;;;;;5085281;28;20266;-72
2024/01/31 13:35:58;;;;;;;1999.90;999.90;;;;;;;;;;5063999;28;20285;-71
2024/01/31 13:38:26;;;;;;;1999.90;999.90;;;;;;;;;;5075031;28;20200;-66
2024/01/31 13:40:54;;;;;;;1999.90;999.90;;;;;;;;;;5072419;28;20674;-65
2024/01/31 13:43:21;;;;;;;1999.90;999.90;;;;;;;;;;5057622;28;20190;-72
2024/01/31 13:45:48;;;;;;;1999.90;999.90;;;;;;;;;;5072724;28;20197;-69